Time,TemperatureF,DewpointF,PressureIn,WindDirection,WindDirectionDegrees,WindSpeedMPH,WindSpeedGustMPH,Humidity,HourlyPrecipIn,Conditions,Clouds,dailyrainin,SolarRadiationWatts/m^2,SoftwareType,DateUTC
2013-05-31 00:02:00,41.0,40.0,-100.00,SE,142,2.0,4.0,98,0.00,,,0.31,0.000000,,2013-05-31 07:02:00,
2013-05-31 00:11:00,41.0,40.0,-100.00,SE,142,2.0,4.0,98,0.00,,,0.31,0.000000,,2013-05-31 07:11:00,
2013-05-31 00:21:00,41.0,40.0,-100.00,SE,142,2.0,4.0,98,0.00,,,0.31,0.000000,,2013-05-31 07:21:00,
2013-05-31 00:52:00,41.0,39.0,-100.00,SSE,154,2.0,4.0,93,0.00,,,0.28,0.000000,,2013-05-31 07:52:00,
2013-05-31 01:02:00,41.0,39.0,-100.00,SSE,154,2.0,4.0,93,0.00,,,0.28,0.000000,,2013-05-31 08:02:00,
2013-05-31 01:11:00,41.0,39.0,-100.00,SSE,154,2.0,4.0,93,0.00,,,0.28,0.000000,,2013-05-31 08:11:00,
2013-05-31 01:21:00,41.0,39.0,-100.00,SSE,154,2.0,4.0,93,0.00,,,0.28,0.000000,,2013-05-31 08:21:00,
2013-05-31 01:52:00,41.0,38.0,-100.00,SW,236,0.0,4.0,88,0.00,,,0.27,0.000000,,2013-05-31 08:52:00,
2013-05-31 02:01:00,41.0,38.0,-100.00,SW,236,0.0,4.0,88,0.00,,,0.27,0.000000,,2013-05-31 09:01:00,
2013-05-31 02:11:00,41.0,38.0,-100.00,SW,236,0.0,4.0,88,0.00,,,0.27,0.000000,,2013-05-31 09:11:00,
2013-05-31 02:21:00,41.0,38.0,-100.00,SW,236,0.0,4.0,88,0.00,,,0.27,0.000000,,2013-05-31 09:21:00,
2013-05-31 02:53:00,41.0,39.0,-100.00,East,98,0.0,2.0,93,0.00,,,0.27,0.000000,,2013-05-31 09:53:00,
2013-05-31 03:02:00,41.0,39.0,-100.00,East,98,0.0,2.0,93,0.00,,,0.27,0.000000,,2013-05-31 10:02:00,
2013-05-31 03:12:00,41.0,39.0,-100.00,East,98,0.0,2.0,93,0.00,,,0.27,0.000000,,2013-05-31 10:12:00,
2013-05-31 03:22:00,41.0,39.0,-100.00,East,98,0.0,2.0,93,0.00,,,0.27,0.000000,,2013-05-31 10:22:00,
2013-05-31 03:52:00,40.0,38.0,-100.00,SW,222,0.0,3.0,93,0.00,,,0.27,0.000000,,2013-05-31 10:52:00,
2013-05-31 04:01:00,40.0,38.0,-100.00,SW,222,0.0,3.0,93,0.00,,,0.27,0.000000,,2013-05-31 11:01:00,
2013-05-31 04:11:00,40.0,38.0,-100.00,SW,222,0.0,3.0,93,0.00,,,0.27,0.000000,,2013-05-31 11:11:00,
2013-05-31 04:22:00,40.0,38.0,-100.00,SW,222,0.0,3.0,93,0.00,,,0.27,0.000000,,2013-05-31 11:22:00,
2013-05-31 04:52:00,41.0,39.0,-100.00,NW,316,1.0,3.0,92,0.00,,,0.27,0.000000,,2013-05-31 11:52:00,
2013-05-31 05:01:00,41.0,39.0,-100.00,NW,316,1.0,3.0,92,0.00,,,0.27,0.000000,,2013-05-31 12:01:00,
2013-05-31 05:11:00,41.0,39.0,-100.00,NW,316,1.0,3.0,92,0.00,,,0.27,0.000000,,2013-05-31 12:11:00,
2013-05-31 05:21:00,41.0,39.0,-100.00,NW,316,1.0,3.0,92,0.00,,,0.27,0.000000,,2013-05-31 12:21:00,
2013-05-31 05:52:00,40.0,39.0,-100.00,ESE,116,0.0,2.0,95,0.00,,,0.27,1.000000,,2013-05-31 12:52:00,
2013-05-31 06:01:00,40.0,39.0,-100.00,ESE,116,0.0,2.0,95,0.00,,,0.27,1.000000,,2013-05-31 13:01:00,
2013-05-31 06:11:00,40.0,39.0,-100.00,ESE,116,0.0,2.0,95,0.00,,,0.27,1.000000,,2013-05-31 13:11:00,
2013-05-31 06:21:00,40.0,39.0,-100.00,ESE,116,0.0,2.0,95,0.00,,,0.27,1.000000,,2013-05-31 13:21:00,
2013-05-31 06:52:00,42.0,39.0,-100.00,South,176,0.0,3.0,88,0.00,,,0.26,43.000000,,2013-05-31 13:52:00,
2013-05-31 07:02:00,42.0,39.0,-100.00,South,176,0.0,3.0,88,0.00,,,0.26,43.000000,,2013-05-31 14:02:00,
2013-05-31 07:11:00,42.0,39.0,-100.00,South,176,0.0,3.0,88,0.00,,,0.26,43.000000,,2013-05-31 14:11:00,
2013-05-31 07:21:00,42.0,39.0,-100.00,South,176,0.0,3.0,88,0.00,,,0.26,43.000000,,2013-05-31 14:21:00,
2013-05-31 07:52:00,45.0,42.0,-100.00,North,9,0.0,3.0,89,0.00,,,0.26,170.000000,,2013-05-31 14:52:00,
2013-05-31 08:01:00,45.0,42.0,-100.00,North,9,0.0,3.0,89,0.00,,,0.26,170.000000,,2013-05-31 15:01:00,
2013-05-31 08:11:00,45.0,42.0,-100.00,North,9,0.0,3.0,89,0.00,,,0.26,170.000000,,2013-05-31 15:11:00,
2013-05-31 08:21:00,45.0,42.0,-100.00,North,9,0.0,3.0,89,0.00,,,0.26,170.000000,,2013-05-31 15:21:00,
2013-05-31 08:53:00,46.0,42.0,-100.00,ENE,67,2.0,5.0,87,0.00,,,0.26,314.000000,,2013-05-31 15:53:00,
2013-05-31 09:03:00,46.0,42.0,-100.00,ENE,67,2.0,5.0,87,0.00,,,0.26,314.000000,,2013-05-31 16:03:00,
2013-05-31 09:12:00,46.0,42.0,-100.00,ENE,67,2.0,5.0,87,0.00,,,0.26,314.000000,,2013-05-31 16:12:00,
2013-05-31 09:22:00,46.0,42.0,-100.00,ENE,67,2.0,5.0,87,0.00,,,0.26,314.000000,,2013-05-31 16:22:00,
2013-05-31 09:52:00,47.0,41.0,-100.00,NNW,339,1.0,5.0,79,0.00,,,0.25,298.000000,,2013-05-31 16:52:00,
2013-05-31 10:02:00,47.0,41.0,-100.00,NNW,339,1.0,5.0,79,0.00,,,0.25,298.000000,,2013-05-31 17:02:00,
2013-05-31 10:12:00,47.0,41.0,-100.00,NNW,339,1.0,5.0,79,0.00,,,0.25,298.000000,,2013-05-31 17:12:00,
2013-05-31 10:22:00,47.0,41.0,-100.00,NNW,339,1.0,5.0,79,0.00,,,0.25,298.000000,,2013-05-31 17:22:00,
2013-05-31 10:52:00,49.0,44.0,-100.00,NW,312,2.0,7.0,82,0.00,,,0.25,497.000000,,2013-05-31 17:52:00,
2013-05-31 11:01:00,49.0,44.0,-100.00,NW,312,2.0,7.0,82,0.00,,,0.25,497.000000,,2013-05-31 18:01:00,
2013-05-31 11:11:00,49.0,44.0,-100.00,NW,312,2.0,7.0,82,0.00,,,0.25,497.000000,,2013-05-31 18:11:00,
2013-05-31 11:21:00,49.0,44.0,-100.00,NW,312,2.0,7.0,82,0.00,,,0.25,497.000000,,2013-05-31 18:21:00,
2013-05-31 11:52:00,50.0,42.0,-100.00,WNW,285,3.0,7.0,74,0.00,,,0.25,322.000000,,2013-05-31 18:52:00,
2013-05-31 12:01:00,50.0,42.0,-100.00,WNW,285,3.0,7.0,74,0.00,,,0.25,322.000000,,2013-05-31 19:01:00,
2013-05-31 12:11:00,50.0,42.0,-100.00,WNW,285,3.0,7.0,74,0.00,,,0.25,322.000000,,2013-05-31 19:11:00,
2013-05-31 12:21:00,50.0,42.0,-100.00,WNW,285,3.0,7.0,74,0.00,,,0.25,322.000000,,2013-05-31 19:21:00,
2013-05-31 12:52:00,50.0,43.0,-100.00,NW,318,3.0,7.0,78,0.00,,,0.25,343.000000,,2013-05-31 19:52:00,
2013-05-31 13:01:00,50.0,43.0,-100.00,NW,318,3.0,7.0,78,0.00,,,0.25,343.000000,,2013-05-31 20:01:00,
2013-05-31 13:11:00,50.0,43.0,-100.00,NW,318,3.0,7.0,78,0.00,,,0.25,343.000000,,2013-05-31 20:11:00,
2013-05-31 13:22:00,50.0,43.0,-100.00,NW,318,3.0,7.0,78,0.00,,,0.25,343.000000,,2013-05-31 20:22:00,
2013-05-31 13:52:00,51.0,43.0,-100.00,NW,306,3.0,7.0,75,0.00,,,0.25,389.000000,,2013-05-31 20:52:00,
2013-05-31 14:01:00,51.0,43.0,-100.00,NW,306,3.0,7.0,75,0.00,,,0.25,389.000000,,2013-05-31 21:01:00,
2013-05-31 14:11:00,51.0,43.0,-100.00,NW,306,3.0,7.0,75,0.00,,,0.25,389.000000,,2013-05-31 21:11:00,
2013-05-31 14:22:00,51.0,43.0,-100.00,NW,306,3.0,7.0,75,0.00,,,0.25,389.000000,,2013-05-31 21:22:00,
2013-05-31 14:54:00,52.0,44.0,-100.00,WNW,289,3.0,7.0,74,0.00,,,-99.99,359.000000,,2013-05-31 21:54:00,
2013-05-31 15:02:00,52.0,44.0,-100.00,WNW,289,3.0,7.0,74,0.00,,,-99.99,359.000000,,2013-05-31 22:02:00,
2013-05-31 15:12:00,52.0,44.0,-100.00,WNW,289,3.0,7.0,74,0.00,,,-99.99,359.000000,,2013-05-31 22:12:00,
2013-05-31 15:22:00,52.0,44.0,-100.00,WNW,289,3.0,7.0,74,0.00,,,-99.99,359.000000,,2013-05-31 22:22:00,
2013-05-31 15:53:00,52.0,45.0,-100.00,NW,311,4.0,8.0,76,0.00,,,0.13,314.000000,,2013-05-31 22:53:00,
2013-05-31 16:02:00,52.0,45.0,-100.00,NW,311,4.0,8.0,76,0.00,,,0.13,314.000000,,2013-05-31 23:02:00,
2013-05-31 16:12:00,52.0,45.0,-100.00,NW,311,4.0,8.0,76,0.00,,,0.13,314.000000,,2013-05-31 23:12:00,
2013-05-31 16:21:00,52.0,45.0,-100.00,NW,311,4.0,8.0,76,0.00,,,0.13,314.000000,,2013-05-31 23:21:00,
2013-05-31 16:52:00,51.0,45.0,-100.00,NW,309,4.0,9.0,79,0.00,,,0.09,280.000000,,2013-05-31 23:52:00,
2013-05-31 17:01:00,51.0,45.0,-100.00,NW,309,4.0,9.0,79,0.00,,,0.09,280.000000,,2013-06-01 00:01:00,
2013-05-31 17:11:00,51.0,45.0,-100.00,NW,309,4.0,9.0,79,0.00,,,0.09,280.000000,,2013-06-01 00:11:00,
2013-05-31 17:22:00,51.0,45.0,-100.00,NW,309,4.0,9.0,79,0.00,,,0.09,280.000000,,2013-06-01 00:22:00,
2013-05-31 17:52:00,51.0,46.0,-100.00,NW,318,2.0,7.0,83,0.00,,,0.05,170.000000,,2013-06-01 00:52:00,
2013-05-31 18:01:00,51.0,46.0,-100.00,NW,318,2.0,7.0,83,0.00,,,0.05,170.000000,,2013-06-01 01:01:00,
2013-05-31 18:11:00,51.0,46.0,-100.00,NW,318,2.0,7.0,83,0.00,,,0.05,170.000000,,2013-06-01 01:11:00,
2013-05-31 18:21:00,51.0,46.0,-100.00,NW,318,2.0,7.0,83,0.00,,,0.05,170.000000,,2013-06-01 01:21:00,
2013-05-31 18:52:00,51.0,46.0,-100.00,WNW,302,2.0,7.0,83,0.00,,,0.02,198.000000,,2013-06-01 01:52:00,
2013-05-31 19:01:00,51.0,46.0,-100.00,WNW,302,2.0,7.0,83,0.00,,,0.02,198.000000,,2013-06-01 02:01:00,
2013-05-31 19:11:00,51.0,46.0,-100.00,WNW,302,2.0,7.0,83,0.00,,,0.02,198.000000,,2013-06-01 02:11:00,
2013-05-31 19:21:00,51.0,46.0,-100.00,WNW,302,2.0,7.0,83,0.00,,,0.02,198.000000,,2013-06-01 02:21:00,
2013-05-31 19:52:00,49.0,45.0,-100.00,West,272,3.0,8.0,87,0.00,,,0.01,195.000000,,2013-06-01 02:52:00,
2013-05-31 20:01:00,49.0,45.0,-100.00,West,272,3.0,8.0,87,0.00,,,0.01,195.000000,,2013-06-01 03:01:00,
2013-05-31 20:11:00,49.0,45.0,-100.00,West,272,3.0,8.0,87,0.00,,,0.01,195.000000,,2013-06-01 03:11:00,
2013-05-31 20:21:00,49.0,45.0,-100.00,West,272,3.0,8.0,87,0.00,,,0.01,195.000000,,2013-06-01 03:21:00,
2013-05-31 20:53:00,48.0,45.0,-100.00,West,270,3.0,7.0,91,0.00,,,0.01,33.000000,,2013-06-01 03:53:00,
2013-05-31 21:02:00,48.0,45.0,-100.00,West,270,3.0,7.0,91,0.00,,,0.01,33.000000,,2013-06-01 04:02:00,
2013-05-31 21:12:00,48.0,45.0,-100.00,West,270,3.0,7.0,91,0.00,,,0.01,33.000000,,2013-06-01 04:12:00,
2013-05-31 21:23:00,48.0,45.0,-100.00,West,270,3.0,7.0,91,0.00,,,0.01,33.000000,,2013-06-01 04:23:00,
2013-05-31 21:53:00,47.0,45.0,-100.00,WSW,258,3.0,6.0,92,0.00,,,0.01,7.000000,,2013-06-01 04:53:00,
2013-05-31 22:02:00,47.0,45.0,-100.00,WSW,258,3.0,6.0,92,0.00,,,0.01,7.000000,,2013-06-01 05:02:00,
2013-05-31 22:12:00,47.0,45.0,-100.00,WSW,258,3.0,6.0,92,0.00,,,0.01,7.000000,,2013-06-01 05:12:00,
2013-05-31 22:22:00,47.0,45.0,-100.00,WSW,258,3.0,6.0,92,0.00,,,0.01,7.000000,,2013-06-01 05:22:00,
2013-05-31 22:52:00,45.0,44.0,-100.00,NW,316,1.0,4.0,96,0.00,,,0.00,0.000000,,2013-06-01 05:52:00,
2013-05-31 23:01:00,45.0,44.0,-100.00,NW,316,1.0,4.0,96,0.00,,,0.00,0.000000,,2013-06-01 06:01:00,
2013-05-31 23:12:00,45.0,44.0,-100.00,NW,316,1.0,4.0,96,0.00,,,0.00,0.000000,,2013-06-01 06:12:00,
2013-05-31 23:22:00,45.0,44.0,-100.00,NW,316,1.0,4.0,96,0.00,,,0.00,0.000000,,2013-06-01 06:22:00,
2013-05-31 23:52:00,45.0,44.0,-100.00,SE,132,0.0,3.0,97,0.00,,,0.00,0.000000,,2013-06-01 06:52:00,